EWG8ZJ EDDL-EDDB
Flight info
| Callsign | EWG8ZJ |
|---|---|
| Flight time | 0h 47m |
| Altitude | 35000 |
| Route | MEVEL1Z MEVEL L179 MISRI Z851 ROBEG DCT BATEL T207 OGBER OGBER1R |
| Aircraft | A320/M-SDE3FGHIRWY/LB1 |
Departure
| Time | 2026-05-06 17:12 |
|---|---|
| Airport | Düsseldorf Airport (EDDL) |
Arrival
| Time | 2026-05-06 17:59 |
|---|---|
| Airport | Berlin Brandenburg Airport (EDDB) |
| Time | Latitude | Longitude | Altitude | Speed | Heading |
|---|---|---|---|---|---|
| 2026-05-06 16:51 | 51.28150 | 6.76557 | 99 ft | 0 kts | 97° |
| 2026-05-06 17:03 | 51.28151 | 6.76546 | 94 ft | 2 kts | 97° |
| 2026-05-06 17:03 | 51.28153 | 6.76522 | 125 ft | 2 kts | 97° |
| 2026-05-06 17:03 | 51.28154 | 6.76498 | 123 ft | 2 kts | 97° |
| 2026-05-06 17:04 | 51.28156 | 6.76474 | 122 ft | 2 kts | 57° |
| 2026-05-06 17:04 | 51.28147 | 6.76460 | 122 ft | 0 kts | 7° |
| 2026-05-06 17:08 | 51.28151 | 6.76460 | 122 ft | 3 kts | 1° |
| 2026-05-06 17:08 | 51.28187 | 6.76443 | 126 ft | 5 kts | 338° |
| 2026-05-06 17:08 | 51.28228 | 6.76441 | 127 ft | 10 kts | 11° |
| 2026-05-06 17:08 | 51.28281 | 6.76505 | 124 ft | 9 kts | 24° |
| 2026-05-06 17:09 | 51.28315 | 6.76412 | 122 ft | 13 kts | 242° |
| 2026-05-06 17:09 | 51.28268 | 6.76311 | 123 ft | 12 kts | 232° |
| 2026-05-06 17:09 | 51.28218 | 6.76208 | 122 ft | 13 kts | 233° |
| 2026-05-06 17:09 | 51.28147 | 6.76056 | 125 ft | 21 kts | 233° |
| 2026-05-06 17:10 | 51.28065 | 6.75885 | 124 ft | 20 kts | 231° |
| 2026-05-06 17:10 | 51.27973 | 6.75694 | 124 ft | 22 kts | 233° |
| 2026-05-06 17:10 | 51.27885 | 6.75504 | 119 ft | 21 kts | 233° |
| 2026-05-06 17:10 | 51.27843 | 6.75364 | 119 ft | 10 kts | 277° |
| 2026-05-06 17:11 | 51.27905 | 6.75290 | 116 ft | 14 kts | 336° |
| 2026-05-06 17:11 | 51.27987 | 6.75259 | 116 ft | 12 kts | 22° |
| 2026-05-06 17:11 | 51.28048 | 6.75382 | 116 ft | 22 kts | 53° |
| 2026-05-06 17:11 | 51.28296 | 6.75902 | 121 ft | 94 kts | 52° |
| 2026-05-06 17:12 | 51.28821 | 6.76986 | 136 ft | 149 kts | 50° |
| 2026-05-06 17:12 | 51.29474 | 6.78331 | 750 ft | 155 kts | 49° |
| 2026-05-06 17:12 | 51.30139 | 6.79714 | 1485 ft | 160 kts | 51° |
| 2026-05-06 17:12 | 51.30862 | 6.81206 | 1934 ft | 179 kts | 51° |
| 2026-05-06 17:13 | 51.31660 | 6.82888 | 2335 ft | 202 kts | 52° |
| 2026-05-06 17:13 | 51.32543 | 6.84780 | 2754 ft | 227 kts | 53° |
| 2026-05-06 17:13 | 51.33546 | 6.86940 | 3256 ft | 251 kts | 53° |
| 2026-05-06 17:13 | 51.34618 | 6.89183 | 4058 ft | 262 kts | 45° |
| 2026-05-06 17:14 | 51.36180 | 6.90711 | 4958 ft | 269 kts | 15° |
| 2026-05-06 17:14 | 51.38053 | 6.91052 | 5927 ft | 273 kts | 4° |
| 2026-05-06 17:14 | 51.39954 | 6.91426 | 6871 ft | 277 kts | 9° |
| 2026-05-06 17:14 | 51.41867 | 6.91978 | 7807 ft | 281 kts | 11° |
| 2026-05-06 17:15 | 51.43797 | 6.92588 | 8766 ft | 284 kts | 11° |
| 2026-05-06 17:15 | 51.45749 | 6.93196 | 9720 ft | 288 kts | 11° |
| 2026-05-06 17:15 | 51.47759 | 6.93794 | 10311 ft | 304 kts | 10° |
| 2026-05-06 17:15 | 51.49945 | 6.94102 | 10654 ft | 327 kts | 359° |
| 2026-05-06 17:16 | 51.52238 | 6.93665 | 11315 ft | 336 kts | 350° |
| 2026-05-06 17:16 | 51.54561 | 6.93000 | 12144 ft | 340 kts | 350° |
| 2026-05-06 17:16 | 51.56903 | 6.92338 | 12974 ft | 344 kts | 350° |
| 2026-05-06 17:16 | 51.59275 | 6.91672 | 13761 ft | 348 kts | 350° |
| 2026-05-06 17:17 | 51.61672 | 6.91001 | 14464 ft | 351 kts | 350° |
| 2026-05-06 17:17 | 51.64093 | 6.90324 | 15178 ft | 355 kts | 350° |
| 2026-05-06 17:17 | 51.66563 | 6.89946 | 15835 ft | 361 kts | 1° |
| 2026-05-06 17:17 | 51.69057 | 6.90565 | 16466 ft | 367 kts | 16° |
| 2026-05-06 17:18 | 51.71387 | 6.92187 | 17086 ft | 373 kts | 30° |
| 2026-05-06 17:18 | 51.73448 | 6.94784 | 17674 ft | 380 kts | 46° |
| 2026-05-06 17:18 | 51.75106 | 6.98118 | 18271 ft | 385 kts | 54° |
| 2026-05-06 17:18 | 51.76706 | 7.01621 | 18813 ft | 389 kts | 54° |
| 2026-05-06 17:19 | 51.78317 | 7.05163 | 19428 ft | 392 kts | 53° |
| 2026-05-06 17:19 | 51.79940 | 7.08737 | 19988 ft | 396 kts | 53° |
| 2026-05-06 17:19 | 51.81576 | 7.12338 | 20592 ft | 399 kts | 53° |
| 2026-05-06 17:19 | 51.83227 | 7.15974 | 21143 ft | 403 kts | 53° |
| 2026-05-06 17:20 | 51.84889 | 7.19643 | 21688 ft | 406 kts | 54° |
| 2026-05-06 17:20 | 51.86354 | 7.23576 | 22217 ft | 411 kts | 62° |
| 2026-05-06 17:20 | 51.87694 | 7.27692 | 22755 ft | 414 kts | 62° |
| 2026-05-06 17:20 | 51.89041 | 7.31834 | 23287 ft | 417 kts | 62° |
| 2026-05-06 17:21 | 51.90399 | 7.36012 | 23745 ft | 421 kts | 62° |
| 2026-05-06 17:21 | 51.91768 | 7.40220 | 24175 ft | 424 kts | 62° |
| 2026-05-06 17:21 | 51.93145 | 7.44466 | 24592 ft | 427 kts | 62° |
| 2026-05-06 17:21 | 51.94378 | 7.48788 | 25006 ft | 430 kts | 70° |
| 2026-05-06 17:22 | 51.95245 | 7.53438 | 25429 ft | 433 kts | 75° |
| 2026-05-06 17:22 | 51.96043 | 7.58162 | 25849 ft | 436 kts | 75° |
| 2026-05-06 17:22 | 51.96850 | 7.62912 | 26263 ft | 438 kts | 75° |
| 2026-05-06 17:22 | 51.97665 | 7.67701 | 26657 ft | 441 kts | 75° |
| 2026-05-06 17:23 | 51.98482 | 7.72516 | 27068 ft | 444 kts | 75° |
| 2026-05-06 17:23 | 51.99297 | 7.77359 | 27469 ft | 447 kts | 76° |
| 2026-05-06 17:23 | 52.00111 | 7.82238 | 27865 ft | 449 kts | 76° |
| 2026-05-06 17:23 | 52.00929 | 7.87145 | 28233 ft | 452 kts | 76° |
| 2026-05-06 17:24 | 52.01475 | 7.90421 | 28490 ft | 454 kts | 76° |
| 2026-05-06 17:24 | 52.02301 | 7.95388 | 28864 ft | 458 kts | 75° |
| 2026-05-06 17:24 | 52.03131 | 8.00405 | 29213 ft | 461 kts | 76° |
| 2026-05-06 17:24 | 52.03964 | 8.05459 | 29558 ft | 464 kts | 76° |
| 2026-05-06 17:25 | 52.04802 | 8.10543 | 29907 ft | 467 kts | 76° |
| 2026-05-06 17:25 | 52.05644 | 8.15651 | 30205 ft | 469 kts | 76° |
| 2026-05-06 17:25 | 52.06490 | 8.20786 | 30478 ft | 472 kts | 76° |
| 2026-05-06 17:25 | 52.07339 | 8.25951 | 30744 ft | 474 kts | 76° |
| 2026-05-06 17:26 | 52.08191 | 8.31149 | 31018 ft | 477 kts | 76° |
| 2026-05-06 17:26 | 52.09042 | 8.36381 | 31293 ft | 479 kts | 76° |
| 2026-05-06 17:26 | 52.09893 | 8.41642 | 31549 ft | 482 kts | 76° |
| 2026-05-06 17:26 | 52.10733 | 8.46842 | 31913 ft | 482 kts | 76° |
| 2026-05-06 17:27 | 52.11583 | 8.52123 | 32263 ft | 482 kts | 76° |
| 2026-05-06 17:27 | 52.12430 | 8.57412 | 32646 ft | 482 kts | 76° |
| 2026-05-06 17:27 | 52.13272 | 8.62696 | 33003 ft | 482 kts | 76° |
| 2026-05-06 17:27 | 52.14113 | 8.67988 | 33384 ft | 483 kts | 77° |
| 2026-05-06 17:28 | 52.14954 | 8.73287 | 33763 ft | 483 kts | 77° |
| 2026-05-06 17:28 | 52.15791 | 8.78586 | 34089 ft | 483 kts | 77° |
| 2026-05-06 17:28 | 52.16626 | 8.83890 | 34422 ft | 482 kts | 77° |
| 2026-05-06 17:28 | 52.17456 | 8.89185 | 34708 ft | 483 kts | 77° |
| 2026-05-06 17:29 | 52.18276 | 8.94419 | 34823 ft | 481 kts | 77° |
| 2026-05-06 17:29 | 52.19925 | 9.04905 | 34837 ft | 476 kts | 77° |
| 2026-05-06 17:30 | 52.21567 | 9.15353 | 34843 ft | 475 kts | 77° |
| 2026-05-06 17:30 | 52.23184 | 9.25788 | 34837 ft | 475 kts | 77° |
| 2026-05-06 17:31 | 52.24910 | 9.36193 | 34840 ft | 475 kts | 75° |
| 2026-05-06 17:31 | 52.26808 | 9.46447 | 34836 ft | 474 kts | 74° |
| 2026-05-06 17:32 | 52.28713 | 9.56748 | 34838 ft | 474 kts | 75° |
| 2026-05-06 17:32 | 52.30552 | 9.67154 | 34835 ft | 473 kts | 75° |
| 2026-05-06 17:33 | 52.32352 | 9.77506 | 34835 ft | 473 kts | 75° |
| 2026-05-06 17:33 | 52.34156 | 9.87841 | 34831 ft | 473 kts | 75° |
| 2026-05-06 17:34 | 52.35934 | 9.98125 | 34826 ft | 473 kts | 75° |
| 2026-05-06 17:34 | 52.37721 | 10.08470 | 34818 ft | 473 kts | 75° |
| 2026-05-06 17:35 | 52.39508 | 10.18845 | 34820 ft | 473 kts | 75° |
| 2026-05-06 17:35 | 52.41285 | 10.29230 | 34811 ft | 473 kts | 75° |
| 2026-05-06 17:36 | 52.43923 | 10.44847 | 34825 ft | 474 kts | 76° |
| 2026-05-06 17:36 | 52.45673 | 10.55265 | 34806 ft | 474 kts | 76° |
| 2026-05-06 17:37 | 52.47424 | 10.65693 | 34482 ft | 474 kts | 76° |
| 2026-05-06 17:37 | 52.48293 | 10.70899 | 33879 ft | 473 kts | 76° |
| 2026-05-06 17:37 | 52.49155 | 10.76103 | 33164 ft | 472 kts | 76° |
| 2026-05-06 17:38 | 52.50010 | 10.81277 | 32547 ft | 468 kts | 76° |
| 2026-05-06 17:38 | 52.50861 | 10.86441 | 31902 ft | 466 kts | 76° |
| 2026-05-06 17:38 | 52.51701 | 10.91561 | 31276 ft | 464 kts | 76° |
| 2026-05-06 17:38 | 52.52536 | 10.96666 | 30660 ft | 462 kts | 76° |
| 2026-05-06 17:39 | 52.53362 | 11.01745 | 30053 ft | 460 kts | 76° |
| 2026-05-06 17:39 | 52.54179 | 11.06801 | 29396 ft | 457 kts | 78° |
| 2026-05-06 17:39 | 52.54718 | 11.11896 | 28882 ft | 448 kts | 88° |
| 2026-05-06 17:39 | 52.54866 | 11.16966 | 28335 ft | 441 kts | 91° |
| 2026-05-06 17:40 | 52.54978 | 11.21915 | 27812 ft | 437 kts | 91° |
| 2026-05-06 17:40 | 52.55095 | 11.26937 | 27285 ft | 432 kts | 90° |
| 2026-05-06 17:40 | 52.55209 | 11.31783 | 26783 ft | 427 kts | 90° |
| 2026-05-06 17:40 | 52.55320 | 11.36643 | 26295 ft | 423 kts | 90° |
| 2026-05-06 17:41 | 52.55425 | 11.41435 | 25817 ft | 418 kts | 90° |
| 2026-05-06 17:41 | 52.55528 | 11.46200 | 25354 ft | 414 kts | 90° |
| 2026-05-06 17:41 | 52.55628 | 11.50909 | 24901 ft | 409 kts | 90° |
| 2026-05-06 17:41 | 52.55721 | 11.55550 | 24441 ft | 405 kts | 91° |
| 2026-05-06 17:42 | 52.55812 | 11.60157 | 24006 ft | 401 kts | 91° |
| 2026-05-06 17:42 | 52.55899 | 11.64720 | 23550 ft | 398 kts | 91° |
| 2026-05-06 17:42 | 52.55984 | 11.69235 | 23042 ft | 395 kts | 91° |
| 2026-05-06 17:42 | 52.56067 | 11.73736 | 22582 ft | 391 kts | 91° |
| 2026-05-06 17:43 | 52.56147 | 11.78174 | 22130 ft | 387 kts | 91° |
| 2026-05-06 17:43 | 52.56228 | 11.82580 | 21669 ft | 384 kts | 91° |
| 2026-05-06 17:43 | 52.56310 | 11.86948 | 21211 ft | 381 kts | 91° |
| 2026-05-06 17:43 | 52.56392 | 11.91291 | 20752 ft | 379 kts | 91° |
| 2026-05-06 17:44 | 52.56469 | 11.95611 | 20283 ft | 377 kts | 91° |
| 2026-05-06 17:44 | 52.56539 | 11.99912 | 19813 ft | 376 kts | 91° |
| 2026-05-06 17:44 | 52.56604 | 12.04139 | 19354 ft | 374 kts | 91° |
| 2026-05-06 17:44 | 52.56667 | 12.08417 | 18883 ft | 373 kts | 91° |
| 2026-05-06 17:45 | 52.56708 | 12.12674 | 18431 ft | 371 kts | 92° |
| 2026-05-06 17:45 | 52.56714 | 12.16913 | 17947 ft | 370 kts | 93° |
| 2026-05-06 17:45 | 52.56702 | 12.21136 | 17467 ft | 368 kts | 93° |
| 2026-05-06 17:45 | 52.56867 | 12.25317 | 17016 ft | 367 kts | 83° |
| 2026-05-06 17:46 | 52.57257 | 12.29445 | 16558 ft | 364 kts | 83° |
| 2026-05-06 17:46 | 52.57651 | 12.33550 | 16088 ft | 362 kts | 83° |
| 2026-05-06 17:46 | 52.58045 | 12.37629 | 15801 ft | 359 kts | 83° |
| 2026-05-06 17:46 | 52.58438 | 12.41663 | 15406 ft | 356 kts | 83° |
| 2026-05-06 17:47 | 52.58729 | 12.45707 | 14677 ft | 360 kts | 92° |
| 2026-05-06 17:47 | 52.58293 | 12.49781 | 13763 ft | 366 kts | 114° |
| 2026-05-06 17:47 | 52.57060 | 12.53332 | 12941 ft | 352 kts | 131° |
| 2026-05-06 17:47 | 52.55555 | 12.56440 | 12275 ft | 340 kts | 131° |
| 2026-05-06 17:48 | 52.54108 | 12.59400 | 11840 ft | 328 kts | 132° |
| 2026-05-06 17:48 | 52.52676 | 12.62306 | 11401 ft | 327 kts | 132° |
| 2026-05-06 17:48 | 52.51246 | 12.65197 | 11006 ft | 324 kts | 132° |
| 2026-05-06 17:48 | 52.49839 | 12.68049 | 10666 ft | 320 kts | 132° |
| 2026-05-06 17:49 | 52.48440 | 12.70883 | 10243 ft | 319 kts | 132° |
| 2026-05-06 17:49 | 52.47067 | 12.73668 | 10091 ft | 308 kts | 132° |
| 2026-05-06 17:49 | 52.45741 | 12.76364 | 9874 ft | 301 kts | 132° |
| 2026-05-06 17:49 | 52.44433 | 12.79024 | 9513 ft | 302 kts | 132° |
| 2026-05-06 17:50 | 52.43118 | 12.81689 | 9161 ft | 299 kts | 131° |
| 2026-05-06 17:50 | 52.41841 | 12.84276 | 8541 ft | 294 kts | 131° |
| 2026-05-06 17:50 | 52.40539 | 12.86903 | 7814 ft | 292 kts | 131° |
| 2026-05-06 17:50 | 52.39279 | 12.89442 | 7151 ft | 290 kts | 131° |
| 2026-05-06 17:51 | 52.38013 | 12.91993 | 6494 ft | 287 kts | 131° |
| 2026-05-06 17:51 | 52.36761 | 12.94512 | 5803 ft | 285 kts | 130° |
| 2026-05-06 17:51 | 52.35520 | 12.97004 | 5189 ft | 279 kts | 130° |
| 2026-05-06 17:51 | 52.34317 | 12.99417 | 4864 ft | 263 kts | 130° |
| 2026-05-06 17:52 | 52.33218 | 13.01630 | 4800 ft | 239 kts | 130° |
| 2026-05-06 17:52 | 52.32205 | 13.03671 | 4746 ft | 227 kts | 131° |
| 2026-05-06 17:52 | 52.31212 | 13.05661 | 4524 ft | 226 kts | 130° |
| 2026-05-06 17:52 | 52.30226 | 13.07635 | 4279 ft | 223 kts | 130° |
| 2026-05-06 17:53 | 52.29252 | 13.09583 | 4037 ft | 219 kts | 129° |
| 2026-05-06 17:53 | 52.28291 | 13.11504 | 3780 ft | 217 kts | 127° |
| 2026-05-06 17:53 | 52.27577 | 13.13633 | 3546 ft | 213 kts | 106° |
| 2026-05-06 17:53 | 52.27378 | 13.15986 | 3333 ft | 207 kts | 86° |
| 2026-05-06 17:54 | 52.27684 | 13.18251 | 3099 ft | 203 kts | 68° |
| 2026-05-06 17:54 | 52.28201 | 13.20383 | 2994 ft | 202 kts | 68° |
| 2026-05-06 17:54 | 52.28706 | 13.22479 | 2997 ft | 192 kts | 68° |
| 2026-05-06 17:54 | 52.29185 | 13.24468 | 2978 ft | 186 kts | 68° |
| 2026-05-06 17:55 | 52.29654 | 13.26415 | 2829 ft | 181 kts | 68° |
| 2026-05-06 17:55 | 52.30103 | 13.28284 | 2586 ft | 173 kts | 68° |
| 2026-05-06 17:55 | 52.30525 | 13.30042 | 2372 ft | 160 kts | 68° |
| 2026-05-06 17:55 | 52.30917 | 13.31676 | 2165 ft | 149 kts | 68° |
| 2026-05-06 17:56 | 52.31285 | 13.33214 | 1967 ft | 141 kts | 68° |
| 2026-05-06 17:56 | 52.31633 | 13.34667 | 1806 ft | 133 kts | 67° |
| 2026-05-06 17:56 | 52.31963 | 13.36043 | 1621 ft | 128 kts | 67° |
| 2026-05-06 17:56 | 52.32288 | 13.37401 | 1446 ft | 128 kts | 68° |
| 2026-05-06 17:57 | 52.32607 | 13.38734 | 1262 ft | 127 kts | 66° |
| 2026-05-06 17:57 | 52.32928 | 13.40074 | 1090 ft | 126 kts | 67° |
| 2026-05-06 17:57 | 52.33265 | 13.41398 | 898 ft | 125 kts | 66° |
| 2026-05-06 17:57 | 52.33589 | 13.42742 | 701 ft | 129 kts | 68° |
| 2026-05-06 17:58 | 52.33901 | 13.44102 | 540 ft | 129 kts | 68° |
| 2026-05-06 17:58 | 52.34220 | 13.45453 | 369 ft | 127 kts | 66° |
| 2026-05-06 17:58 | 52.34535 | 13.46799 | 211 ft | 126 kts | 68° |
| 2026-05-06 17:58 | 52.34834 | 13.48041 | 156 ft | 102 kts | 69° |
| 2026-05-06 17:59 | 52.35024 | 13.48859 | 153 ft | 52 kts | 68° |
| 2026-05-06 17:59 | 52.35121 | 13.49183 | 154 ft | 24 kts | 53° |
| 2026-05-06 17:59 | 52.35214 | 13.49342 | 157 ft | 15 kts | 38° |
| 2026-05-06 17:59 | 52.35282 | 13.49430 | 157 ft | 12 kts | 38° |
| 2026-05-06 18:00 | 52.35353 | 13.49522 | 158 ft | 14 kts | 38° |
| 2026-05-06 18:00 | 52.35437 | 13.49631 | 158 ft | 17 kts | 42° |
| 2026-05-06 18:00 | 52.35480 | 13.49802 | 158 ft | 17 kts | 69° |
| 2026-05-06 18:00 | 52.35532 | 13.49996 | 158 ft | 20 kts | 66° |
| 2026-05-06 18:01 | 52.35588 | 13.50212 | 158 ft | 21 kts | 70° |
| 2026-05-06 18:01 | 52.35640 | 13.50452 | 158 ft | 23 kts | 71° |
| 2026-05-06 18:01 | 52.35693 | 13.50684 | 158 ft | 20 kts | 68° |
| 2026-05-06 18:01 | 52.35746 | 13.50834 | 158 ft | 13 kts | 11° |
| 2026-05-06 18:02 | 52.35842 | 13.50779 | 158 ft | 16 kts | 338° |
| 2026-05-06 18:02 | 52.35927 | 13.50850 | 159 ft | 17 kts | 68° |
| 2026-05-06 18:02 | 52.35974 | 13.51048 | 159 ft | 20 kts | 68° |
| 2026-05-06 18:02 | 52.36011 | 13.51199 | 159 ft | 13 kts | 69° |
| 2026-05-06 18:03 | 52.36058 | 13.51275 | 159 ft | 9 kts | 349° |
| 2026-05-06 18:03 | 52.36116 | 13.51237 | 159 ft | 7 kts | 336° |
| 2026-05-06 18:03 | 52.36126 | 13.51229 | 159 ft | 0 kts | 334° |